忍者ブログ
富士山静岡空港と静浜基地を こよなく愛する私の観察日記
×

[PR]上記の広告は3ヶ月以上新規記事投稿のないブログに表示されています。新しい記事を書く事で広告が消えます。

 いままで、「あそこにポイントがあるのではないだろうか?」

といわれていたポイントが一日限定で開放サレマシタ!!バンザイ!!

高め。俯瞰で撮れる。
引いてこんな感じ

松風閣はこんな感じ

拍手[0回]

PR
ときどき色がおかしくなる現象ってなんでだろ~

妖怪の~~~~せいなのね!?

どーん

スホーイですってよ、奥さん。

ヤクーチャ?ヤクティア?
いずれにせよレアなSSJをゲットだぜ!


拍手[0回]

時間を外すと一機しか撮れませんw

拍手[1回]

  チャイナさん
チャーター

二機目が定期便。立ち位置を考えているうちに降りちゃった
どうしてグダグダになっちゃうの?妖怪のせいなのね

 久々のMUが2機。

拍手[0回]

RJNS 160700Z 24008KT 200V280 9999 VCSH FEW007 SCT013 BKN020 28/25 Q1010

拍手[0回]

8/9
12降りで、タキシーバックなり

チャイナイースたん

拍手[0回]

去年はご縁がありませんでしたが、今年は撮れそうだぞシメシメと思っていたら。。。

なんでこんな暗いの笑

拍手[1回]

ティーグリーンがサークリング

でも、こちらを見ていたので~
航空自衛隊中央音楽隊の演奏会です!





拍手[0回]

先日のしずくうです

まずはHL7730
ひさびさ!

だぶるぷっしゅばっく!!


拍手[0回]

カレンダー
08 2017/09 10
S M T W T F S
1 2
3 4 5 6 7 8 9
10 11 12 13 14 15 16
17 18 19 20 21 22 23
24 25 26 27 28 29 30
フリーエリア
最新CM
[07/29 black adidas boost]
[08/26 管理]
[08/26 nojiken]
[02/25 管理]
[02/25 nojiken]
最新TB
プロフィール
HN:
芙蓉
HP:
性別:
非公開
自己紹介:
当Blogは EMBRAER's fannetに加盟しています。

※画像の転載について・・・
掲載画像の転載はご自由になさっていただいて構いませんが、当該ページ、トピックス、エントリー内に当Blog名とURLの明示をお願いいたします。

当ページは静岡空港への歪んだ愛に満ちた民間人が運営しています。富士山静岡空港、そのほか関連企業及び団体と一切関係ございません。



バーコード
ブログ内検索
P R
忍者ブログ [PR]